Sutherland Springs, Texas
Current Conditions -  °F | °C
As of 1:58 AM on Tuesday 21 Oct 2014 (Local Time) from KRND Reporting Station
Clear Clear  
Wind Chill: 19°   Ceiling: Unl
Heat Index: 19°   Visibility: 10mi
Dew Point: 14°   Wind: 5mph
Humidity: 74%   Direction: 50°NE
Pressure: 30.03"   Gusts: NA
Location:  29.27°N, 98.06°W
Report Text: KRND 210658Z AUTO 05004KT 10SM CLR 19/14 A3003 RMK AO2 SLP163 T01900143
Loading
Personal Weather Stations






























Interactive Weather Map
Tropical Storm Tracking
New forecast layout! Learn more

10-Day Weather Forecast

Advertisements
Track Severe Weather on mobile